createdAt,value
2022-09-17T00:01:43.693Z,9.51
2022-09-17T00:03:50.070Z,9.28
2022-09-17T00:06:00.489Z,9.54
2022-09-17T00:08:03.382Z,9.47
2022-09-17T00:10:06.773Z,9.35
2022-09-17T00:12:09.456Z,9.42
2022-09-17T00:14:15.776Z,9.36
2022-09-17T00:16:25.520Z,9.32
2022-09-17T00:18:29.695Z,9.50
2022-09-17T00:20:32.277Z,9.34
2022-09-17T00:22:34.902Z,9.47
2022-09-17T00:24:37.472Z,9.28
2022-09-17T00:26:40.404Z,9.36
2022-09-17T00:28:45.392Z,9.19
2022-09-17T00:30:48.038Z,9.27
2022-09-17T00:32:51.934Z,9.18
2022-09-17T00:34:55.921Z,9.25
2022-09-17T00:36:58.517Z,9.29
2022-09-17T00:39:01.546Z,9.23
2022-09-17T00:41:05.252Z,9.08
2022-09-17T00:43:12.760Z,9.21
2022-09-17T00:45:15.556Z,9.10
2022-09-17T00:47:23.319Z,9.10
2022-09-17T00:49:30.479Z,9.20
2022-09-17T00:51:38.141Z,9.18
2022-09-17T00:53:40.870Z,9.24
2022-09-17T00:55:48.562Z,9.26
2022-09-17T00:57:53.483Z,9.30
2022-09-17T00:59:56.999Z,9.18
2022-09-17T01:01:59.711Z,9.22
2022-09-17T01:04:02.605Z,9.19
2022-09-17T01:06:16.631Z,9.20
2022-09-17T01:08:30.268Z,9.26
2022-09-17T01:10:53.129Z,9.26
2022-09-17T01:13:09.210Z,9.16
2022-09-17T01:15:22.569Z,9.07
2022-09-17T01:17:33.687Z,9.10
2022-09-17T01:20:03.333Z,8.92
2022-09-17T01:22:11.316Z,8.96
2022-09-17T01:25:01.390Z,8.97
2022-09-17T01:27:28.561Z,8.97
2022-09-17T01:29:44.948Z,9.04
2022-09-17T01:31:54.285Z,9.03
2022-09-17T01:34:04.746Z,9.04
2022-09-17T01:36:27.857Z,8.95
2022-09-17T01:38:35.877Z,8.85
2022-09-17T01:40:45.191Z,8.92
2022-09-17T01:42:52.345Z,8.75
2022-09-17T01:45:00.921Z,8.67
2022-09-17T01:47:10.343Z,8.81
2022-09-17T01:49:16.495Z,8.81
2022-09-17T01:51:24.401Z,8.81
2022-09-17T01:53:32.504Z,8.87
2022-09-17T01:55:39.871Z,8.97
2022-09-17T01:57:48.044Z,8.89
2022-09-17T01:59:56.694Z,8.93
2022-09-17T02:02:07.315Z,8.89
2022-09-17T02:04:15.782Z,9.06
2022-09-17T02:06:22.670Z,9.06
2022-09-17T02:08:27.492Z,9.05
2022-09-17T02:10:34.516Z,9.14
2022-09-17T02:12:42.416Z,9.14
2022-09-17T02:14:49.579Z,9.06
2022-09-17T02:16:58.294Z,8.98
2022-09-17T02:19:06.386Z,9.06
2022-09-17T02:21:16.484Z,9.06
2022-09-17T02:23:23.613Z,9.19
2022-09-17T02:25:32.359Z,9.05
2022-09-17T02:27:52.616Z,9.00
2022-09-17T02:29:55.252Z,8.89
2022-09-17T02:31:58.052Z,8.92
2022-09-17T02:34:04.460Z,8.89
2022-09-17T02:36:07.546Z,8.94
2022-09-17T02:38:11.743Z,8.93
2022-09-17T02:40:16.701Z,8.95
2022-09-17T02:42:29.145Z,8.98
2022-09-17T02:44:39.872Z,8.94
2022-09-17T02:46:56.922Z,9.06
2022-09-17T02:49:21.311Z,8.99
2022-09-17T02:51:34.263Z,8.97
2022-09-17T02:53:47.062Z,8.88
2022-09-17T02:55:58.026Z,8.85
2022-09-17T02:58:09.600Z,8.92
2022-09-17T03:00:16.949Z,9.00
2022-09-17T03:02:24.378Z,8.90
2022-09-17T03:04:29.521Z,8.84
2022-09-17T03:06:32.261Z,8.82
2022-09-17T03:08:38.084Z,8.87
2022-09-17T03:10:43.149Z,8.75
2022-09-17T03:12:45.695Z,8.73
2022-09-17T03:14:48.275Z,8.74
2022-09-17T03:16:50.828Z,8.75
2022-09-17T03:18:53.378Z,8.72
2022-09-17T03:20:56.020Z,8.60
2022-09-17T03:22:58.581Z,8.45
2022-09-17T03:25:01.139Z,8.56
2022-09-17T03:27:05.348Z,8.54
2022-09-17T03:29:07.961Z,8.54
2022-09-17T03:31:10.601Z,8.52
2022-09-17T03:33:13.246Z,8.44
2022-09-17T03:35:15.802Z,8.48
2022-09-17T03:37:18.438Z,8.52
2022-09-17T03:39:21.020Z,8.53
2022-09-17T03:41:23.913Z,8.69
2022-09-17T03:43:28.139Z,8.51
2022-09-17T03:45:30.678Z,8.56
2022-09-17T03:47:33.248Z,8.55
2022-09-17T03:49:35.828Z,8.52
2022-09-17T03:51:38.379Z,8.50
2022-09-17T03:53:41.027Z,8.53
2022-09-17T03:55:43.609Z,8.60
2022-09-17T03:57:46.221Z,8.64
2022-09-17T03:59:50.170Z,8.49
2022-09-17T04:01:52.827Z,8.59
2022-09-17T04:03:56.086Z,8.49
2022-09-17T04:05:58.823Z,8.45
2022-09-17T04:08:01.827Z,8.44
2022-09-17T04:10:05.859Z,8.34
2022-09-17T04:12:08.482Z,8.36
2022-09-17T04:14:11.060Z,8.32
2022-09-17T04:16:15.121Z,8.41
2022-09-17T04:18:17.723Z,8.38
2022-09-17T04:20:20.283Z,8.37
2022-09-17T04:22:22.983Z,8.40
2022-09-17T04:24:25.712Z,8.37
2022-09-17T04:26:28.285Z,8.40
2022-09-17T04:28:31.094Z,8.42
2022-09-17T04:30:33.808Z,8.41
2022-09-17T04:32:37.725Z,8.55
2022-09-17T04:34:40.319Z,8.38
2022-09-17T04:36:42.852Z,8.37
2022-09-17T04:38:45.437Z,8.31
2022-09-17T04:40:48.278Z,8.36
2022-09-17T04:42:53.647Z,8.50
2022-09-17T04:44:56.198Z,8.43
2022-09-17T04:46:58.828Z,8.48
2022-09-17T04:49:02.817Z,8.54
2022-09-17T04:51:05.840Z,8.52
2022-09-17T04:53:08.408Z,8.61
2022-09-17T04:55:11.692Z,8.62
2022-09-17T04:57:14.274Z,8.55
2022-09-17T04:59:17.028Z,8.62
2022-09-17T05:01:19.696Z,8.53
2022-09-17T05:03:22.561Z,8.58
2022-09-17T05:05:26.596Z,8.61
2022-09-17T05:07:29.217Z,8.61
2022-09-17T05:09:31.799Z,8.45
2022-09-17T05:11:34.779Z,8.49
2022-09-17T05:13:37.431Z,8.43
2022-09-17T05:15:39.992Z,8.59
2022-09-17T05:17:42.580Z,8.44
2022-09-17T05:19:45.154Z,8.55
2022-09-17T05:21:49.067Z,8.56
2022-09-17T05:23:51.639Z,8.52
2022-09-17T05:25:54.208Z,8.56
2022-09-17T05:27:57.039Z,8.41
2022-09-17T05:29:59.601Z,8.62
2022-09-17T05:32:02.328Z,8.51
2022-09-17T05:34:05.203Z,8.66
2022-09-17T05:36:08.130Z,8.62
2022-09-17T05:38:12.219Z,8.66
2022-09-17T05:40:14.873Z,8.48
2022-09-17T05:42:17.558Z,8.43
2022-09-17T05:44:20.419Z,8.44
2022-09-17T05:46:23.076Z,8.42
2022-09-17T05:48:25.666Z,8.42
2022-09-17T05:50:29.423Z,8.46
2022-09-17T05:52:32.224Z,8.47
2022-09-17T05:54:36.116Z,8.40
2022-09-17T05:56:38.695Z,8.47
2022-09-17T05:58:41.306Z,8.61
2022-09-17T06:00:47.942Z,8.47
2022-09-17T06:02:55.798Z,8.59
2022-09-17T06:05:01.670Z,8.74
2022-09-17T06:07:06.049Z,8.71
2022-09-17T06:09:08.902Z,8.71
2022-09-17T06:11:12.915Z,8.92
2022-09-17T06:13:15.551Z,9.14
2022-09-17T06:15:18.381Z,8.98
2022-09-17T06:17:22.298Z,9.13
2022-09-17T06:19:25.017Z,9.07
2022-09-17T06:21:27.652Z,9.17
2022-09-17T06:23:35.085Z,9.25
2022-09-17T06:25:37.645Z,9.57
2022-09-17T06:27:41.663Z,9.42
2022-09-17T06:29:44.245Z,9.20
2022-09-17T06:31:48.953Z,9.18
2022-09-17T06:33:51.703Z,9.34
2022-09-17T06:35:59.760Z,9.31
2022-09-17T06:38:05.260Z,9.53
2022-09-17T06:40:09.383Z,9.57
2022-09-17T06:42:12.363Z,9.60
2022-09-17T06:44:16.574Z,9.60
2022-09-17T06:46:19.636Z,9.52
2022-09-17T06:48:22.976Z,9.44
2022-09-17T06:50:26.040Z,9.40
2022-09-17T06:52:29.134Z,9.55
2022-09-17T06:54:32.077Z,9.40
2022-09-17T06:56:34.674Z,9.64
2022-09-17T06:58:38.073Z,9.51
2022-09-17T07:00:42.114Z,9.46
2022-09-17T07:02:44.769Z,9.34
2022-09-17T07:04:47.394Z,9.55
2022-09-17T07:06:49.996Z,9.51
2022-09-17T07:08:52.633Z,9.33
2022-09-17T07:10:56.393Z,9.37
2022-09-17T07:12:59.345Z,9.55
2022-09-17T07:15:01.907Z,9.57
2022-09-17T07:17:07.215Z,9.48
2022-09-17T07:19:11.140Z,9.29
2022-09-17T07:21:13.858Z,9.30
2022-09-17T07:23:16.456Z,9.08
2022-09-17T07:25:19.181Z,9.11
2022-09-17T07:27:21.796Z,9.09
2022-09-17T07:29:26.307Z,8.99
2022-09-17T07:31:28.955Z,8.80
2022-09-17T07:33:33.275Z,8.82
2022-09-17T07:35:35.881Z,8.77
2022-09-17T07:37:38.520Z,8.84
2022-09-17T07:39:42.063Z,8.66
2022-09-17T07:41:45.038Z,8.85
2022-09-17T07:43:47.657Z,9.06
2022-09-17T07:45:50.276Z,9.09
2022-09-17T07:47:52.964Z,8.80
2022-09-17T07:49:56.924Z,8.91
2022-09-17T07:52:00.532Z,8.85
2022-09-17T07:54:03.229Z,8.90
2022-09-17T07:56:11.085Z,8.94
2022-09-17T07:58:14.348Z,8.82
2022-09-17T08:00:17.179Z,8.66
2022-09-17T08:02:24.220Z,8.65
2022-09-17T08:04:27.212Z,8.55
2022-09-17T08:06:31.240Z,8.47
2022-09-17T08:08:35.767Z,8.51
2022-09-17T08:10:38.494Z,8.53
2022-09-17T08:12:41.161Z,8.68
2022-09-17T08:14:43.808Z,8.90
2022-09-17T08:16:47.426Z,9.01
2022-09-17T08:18:51.145Z,9.02
2022-09-17T08:20:53.777Z,8.93
2022-09-17T08:23:01.999Z,8.75
2022-09-17T08:25:05.131Z,9.10
2022-09-17T08:27:07.708Z,9.22
2022-09-17T08:29:11.183Z,9.09
2022-09-17T08:31:13.819Z,9.19
2022-09-17T08:33:16.592Z,9.20
2022-09-17T08:35:19.175Z,9.24
2022-09-17T08:37:22.173Z,9.36
2022-09-17T08:39:26.131Z,9.55
2022-09-17T08:41:37.944Z,9.62
2022-09-17T08:43:47.799Z,9.64
2022-09-17T08:45:54.516Z,9.81
2022-09-17T08:48:02.625Z,10.05
2022-09-17T08:50:07.892Z,10.00
2022-09-17T08:52:36.418Z,10.02
2022-09-17T08:54:47.697Z,9.93
2022-09-17T08:57:02.722Z,10.03
2022-09-17T08:59:19.691Z,10.40
2022-09-17T09:01:32.738Z,10.58
2022-09-17T09:03:51.376Z,10.94
2022-09-17T09:05:54.191Z,11.30
2022-09-17T09:08:04.152Z,11.67
2022-09-17T09:10:16.568Z,11.79
2022-09-17T09:12:25.413Z,11.15
2022-09-17T09:14:32.793Z,11.30
2022-09-17T09:16:41.361Z,11.32
2022-09-17T09:18:44.612Z,11.31
2022-09-17T09:20:53.414Z,11.49
2022-09-17T09:22:56.023Z,11.78
2022-09-17T09:25:06.845Z,11.03
2022-09-17T09:27:19.520Z,11.05
2022-09-17T09:29:35.869Z,11.51
2022-09-17T09:32:16.392Z,11.73
2022-09-17T09:34:20.327Z,11.99
2022-09-17T09:36:23.009Z,12.10
2022-09-17T09:38:33.851Z,11.90
2022-09-17T09:40:41.401Z,11.97
2022-09-17T09:42:46.494Z,11.77
2022-09-17T09:44:49.641Z,11.67
2022-09-17T09:47:10.577Z,11.63
2022-09-17T09:49:23.843Z,11.45
2022-09-17T09:51:38.237Z,11.24
2022-09-17T09:53:53.431Z,11.05
2022-09-17T09:56:07.729Z,11.17
2022-09-17T09:58:24.976Z,10.93
2022-09-17T10:00:30.882Z,10.90
2022-09-17T10:02:34.906Z,10.78
2022-09-17T10:04:37.583Z,10.69
2022-09-17T10:06:40.508Z,10.95
2022-09-17T10:09:04.095Z,10.87
2022-09-17T10:11:19.000Z,10.44
2022-09-17T10:13:23.630Z,10.73
2022-09-17T10:15:28.773Z,10.72
2022-09-17T10:17:31.565Z,11.02
2022-09-17T10:19:34.191Z,11.31
2022-09-17T10:21:38.073Z,11.52
2022-09-17T10:23:44.995Z,11.67
2022-09-17T10:25:48.754Z,12.21
2022-09-17T10:27:51.847Z,12.72
2022-09-17T10:30:03.726Z,12.68
2022-09-17T10:32:08.493Z,12.89
2022-09-17T10:34:21.031Z,13.27
2022-09-17T10:36:38.179Z,12.64
2022-09-17T10:38:42.452Z,13.45
2022-09-17T10:40:45.074Z,14.03
2022-09-17T10:42:48.782Z,13.70
2022-09-17T10:44:53.113Z,13.47
2022-09-17T10:47:04.391Z,13.64
2022-09-17T10:49:12.072Z,13.70
2022-09-17T10:51:24.084Z,14.12
2022-09-17T10:53:28.169Z,13.99
2022-09-17T10:55:33.535Z,14.23
2022-09-17T10:57:51.595Z,14.15
2022-09-17T11:00:06.276Z,14.04
2022-09-17T11:02:32.974Z,13.82
2022-09-17T11:04:48.443Z,14.18
2022-09-17T11:07:15.179Z,14.26
2022-09-17T11:09:30.893Z,13.89
2022-09-17T11:11:45.750Z,13.97
2022-09-17T11:13:59.977Z,14.05
2022-09-17T11:16:23.435Z,13.97
2022-09-17T11:18:46.559Z,14.27
2022-09-17T11:21:08.500Z,14.10
2022-09-17T11:23:28.832Z,14.34
2022-09-17T11:25:46.335Z,14.14
2022-09-17T11:28:05.657Z,14.00
2022-09-17T11:30:17.488Z,13.76
2022-09-17T11:32:39.940Z,13.60
2022-09-17T11:34:53.719Z,13.89
2022-09-17T11:37:03.732Z,13.88
2022-09-17T11:39:14.703Z,14.04
2022-09-17T11:41:20.386Z,14.09
2022-09-17T11:43:27.285Z,13.99
2022-09-17T11:45:34.621Z,14.23
2022-09-17T11:47:44.329Z,14.04
2022-09-17T11:49:52.414Z,14.00
2022-09-17T11:52:00.093Z,14.68
2022-09-17T11:54:08.833Z,14.31
2022-09-17T11:56:20.073Z,13.51
2022-09-17T11:58:30.952Z,13.62
2022-09-17T12:00:41.361Z,13.52
2022-09-17T12:02:51.318Z,13.54
2022-09-17T12:04:59.844Z,13.98
2022-09-17T12:07:11.980Z,14.84
2022-09-17T12:09:18.713Z,15.32
2022-09-17T12:11:24.901Z,15.06
2022-09-17T12:13:34.355Z,14.91
2022-09-17T12:15:41.608Z,14.48
2022-09-17T12:17:48.997Z,13.87
2022-09-17T12:19:55.954Z,13.66
2022-09-17T12:22:05.674Z,13.64
2022-09-17T12:24:16.037Z,13.35
2022-09-17T12:26:29.268Z,13.06
2022-09-17T12:28:36.277Z,12.65
2022-09-17T12:30:44.128Z,12.65
2022-09-17T12:33:00.787Z,12.35
2022-09-17T12:35:17.767Z,12.24
2022-09-17T12:37:29.108Z,12.39
2022-09-17T12:39:46.569Z,12.21
2022-09-17T12:41:59.312Z,12.56
2022-09-17T12:44:17.530Z,13.13
2022-09-17T12:46:39.288Z,13.38
2022-09-17T12:49:14.424Z,12.85
2022-09-17T12:51:32.404Z,13.02
2022-09-17T12:53:41.656Z,12.73
2022-09-17T12:56:10.719Z,13.03
2022-09-17T12:58:28.534Z,12.01
2022-09-17T13:00:38.051Z,12.09
2022-09-17T13:02:46.813Z,11.89
2022-09-17T13:05:12.059Z,11.88
2022-09-17T13:07:33.059Z,11.49
2022-09-17T13:10:04.013Z,11.80
2022-09-17T13:12:19.877Z,10.95
2022-09-17T13:14:33.611Z,10.72
2022-09-17T13:16:41.305Z,10.42
2022-09-17T13:19:15.065Z,10.45
2022-09-17T13:21:24.104Z,10.42
2022-09-17T13:23:34.115Z,10.35
2022-09-17T13:25:51.047Z,10.33
2022-09-17T13:28:08.506Z,10.45
2022-09-17T13:30:12.412Z,10.04
2022-09-17T13:32:49.583Z,9.91
2022-09-17T13:34:52.229Z,9.97
2022-09-17T13:36:55.296Z,9.96
2022-09-17T13:38:58.125Z,10.23
2022-09-17T13:41:21.721Z,10.15
2022-09-17T13:43:27.980Z,10.39
2022-09-17T13:45:32.057Z,10.80
2022-09-17T13:47:36.715Z,10.82
2022-09-17T13:49:46.506Z,11.15
2022-09-17T13:51:52.123Z,10.92
2022-09-17T13:53:56.268Z,11.62
2022-09-17T13:56:01.122Z,11.77
2022-09-17T13:58:08.970Z,11.48
2022-09-17T14:00:51.792Z,11.52
2022-09-17T14:02:54.604Z,11.58
2022-09-17T14:05:18.318Z,11.82
2022-09-17T14:07:47.215Z,12.19
2022-09-17T14:09:55.219Z,12.62
2022-09-17T14:11:57.835Z,12.34
2022-09-17T14:14:40.336Z,12.23
2022-09-17T14:16:48.052Z,12.48
2022-09-17T14:18:59.802Z,12.50
2022-09-17T14:21:08.191Z,12.42
2022-09-17T14:23:13.258Z,12.49
2022-09-17T14:25:19.593Z,12.68
2022-09-17T14:27:41.490Z,12.67
2022-09-17T14:30:14.779Z,12.73
2022-09-17T14:32:20.990Z,12.67
2022-09-17T14:34:25.581Z,11.98
2022-09-17T14:36:28.547Z,12.31
2022-09-17T14:38:35.043Z,12.27
2022-09-17T14:40:44.459Z,11.98
2022-09-17T14:42:49.726Z,12.05
2022-09-17T14:44:59.815Z,12.23
2022-09-17T14:47:08.150Z,12.25
2022-09-17T14:49:15.930Z,12.23
2022-09-17T14:51:29.519Z,12.29
2022-09-17T14:53:32.129Z,12.07
2022-09-17T14:55:35.044Z,12.28
2022-09-17T14:57:38.459Z,12.12
2022-09-17T14:59:50.799Z,12.29
2022-09-17T15:01:53.661Z,12.32
2022-09-17T15:06:24.973Z,12.19
2022-09-17T15:08:30.148Z,12.04
2022-09-17T15:10:33.313Z,12.20
2022-09-17T15:12:36.418Z,12.41
2022-09-17T15:14:40.248Z,12.24
2022-09-17T15:16:49.330Z,12.01
2022-09-17T15:18:55.380Z,12.09
2022-09-17T15:21:00.830Z,11.87
2022-09-17T15:23:16.081Z,12.02
2022-09-17T15:25:23.920Z,12.09
2022-09-17T15:27:30.464Z,12.13
2022-09-17T15:29:34.854Z,12.18
2022-09-17T15:31:37.694Z,12.13
2022-09-17T15:33:40.476Z,12.09
2022-09-17T15:36:00.221Z,12.10
2022-09-17T15:38:24.121Z,12.04
2022-09-17T15:40:30.163Z,12.01
2022-09-17T15:42:32.929Z,12.06
2022-09-17T15:44:35.512Z,12.10
2022-09-17T15:46:38.179Z,12.08
2022-09-17T15:48:41.401Z,12.22
2022-09-17T15:50:53.082Z,12.08
2022-09-17T15:53:24.278Z,12.09
2022-09-17T15:55:38.188Z,12.04
2022-09-17T15:57:40.845Z,12.15
2022-09-17T15:59:43.789Z,12.29
2022-09-17T16:01:56.610Z,12.53
2022-09-17T16:04:09.704Z,12.22
2022-09-17T16:06:39.191Z,12.16
2022-09-17T16:08:43.438Z,12.07
2022-09-17T16:10:46.017Z,11.81
2022-09-17T16:12:50.778Z,11.77
2022-09-17T16:14:54.470Z,11.66
2022-09-17T16:16:57.106Z,11.60
2022-09-17T16:18:59.814Z,11.69
2022-09-17T16:21:02.446Z,11.61
2022-09-17T16:23:05.065Z,11.59
2022-09-17T16:25:09.693Z,11.77
2022-09-17T16:27:17.137Z,11.83
2022-09-17T16:29:21.195Z,11.99
2022-09-17T16:31:24.949Z,12.07
2022-09-17T16:33:28.222Z,12.16
2022-09-17T16:35:30.808Z,12.16
2022-09-17T16:37:33.816Z,12.23
2022-09-17T16:39:36.396Z,12.10
2022-09-17T16:41:40.398Z,12.07
2022-09-17T16:43:42.974Z,12.02
2022-09-17T16:45:58.268Z,12.03
2022-09-17T16:48:00.963Z,11.85
2022-09-17T16:50:05.075Z,11.82
2022-09-17T16:52:07.690Z,11.79
2022-09-17T16:54:10.541Z,11.86
2022-09-17T16:56:15.240Z,11.82
2022-09-17T16:58:19.245Z,11.83
2022-09-17T17:00:22.577Z,11.76
2022-09-17T17:02:25.230Z,11.66
2022-09-17T17:04:27.790Z,11.69
2022-09-17T17:06:30.372Z,11.61
2022-09-17T17:08:34.464Z,11.66
2022-09-17T17:10:39.387Z,11.58
2022-09-17T17:12:42.238Z,11.54
2022-09-17T17:14:49.905Z,11.43
2022-09-17T17:16:52.544Z,11.42
2022-09-17T17:18:55.488Z,11.33
2022-09-17T17:21:04.794Z,11.10
2022-09-17T17:23:08.059Z,11.01
2022-09-17T17:25:12.122Z,10.83
2022-09-17T17:27:15.385Z,10.65
2022-09-17T17:29:19.053Z,10.65
2022-09-17T17:31:23.373Z,10.57
2022-09-17T17:33:26.259Z,10.57
2022-09-17T17:35:28.857Z,10.50
2022-09-17T17:37:31.434Z,10.39
2022-09-17T17:39:34.085Z,10.25
2022-09-17T17:41:36.862Z,10.29
2022-09-17T17:43:39.880Z,10.19
2022-09-17T17:45:42.543Z,10.25
2022-09-17T17:47:46.516Z,10.19
2022-09-17T17:49:49.131Z,10.19
2022-09-17T17:51:53.068Z,10.25
2022-09-17T17:53:55.733Z,10.26
2022-09-17T17:56:00.126Z,10.24
2022-09-17T17:58:02.707Z,10.26
2022-09-17T18:00:06.200Z,10.14
2022-09-17T18:02:09.070Z,10.00
2022-09-17T18:04:13.205Z,9.97
2022-09-17T18:06:16.250Z,9.90
2022-09-17T18:08:19.132Z,9.81
2022-09-17T18:10:23.135Z,9.75
2022-09-17T18:12:27.116Z,9.84
2022-09-17T18:14:29.934Z,9.72
2022-09-17T18:16:32.749Z,9.66
2022-09-17T18:18:42.113Z,9.65
2022-09-17T18:20:48.402Z,9.66
2022-09-17T18:22:51.023Z,9.65
2022-09-17T18:24:53.689Z,9.57
2022-09-17T18:26:56.269Z,9.57
2022-09-17T18:28:58.859Z,9.55
2022-09-17T18:31:06.980Z,9.54
2022-09-17T18:33:09.665Z,9.43
2022-09-17T18:35:12.277Z,9.41
2022-09-17T18:37:16.300Z,9.51
2022-09-17T18:41:43.721Z,9.36
2022-09-17T18:43:46.315Z,9.33
2022-09-17T18:45:55.299Z,9.28
2022-09-17T18:47:57.888Z,9.35
2022-09-17T18:50:00.561Z,9.31
2022-09-17T18:52:03.633Z,9.33
2022-09-17T18:54:07.588Z,9.47
2022-09-17T18:56:16.999Z,9.50
2022-09-17T18:58:19.647Z,9.38
2022-09-17T19:00:24.314Z,9.39
2022-09-17T19:02:27.106Z,9.41
2022-09-17T19:04:29.795Z,9.34
2022-09-17T19:06:32.547Z,9.45
2022-09-17T19:08:35.738Z,9.46
2022-09-17T19:10:39.750Z,9.43
2022-09-17T19:12:43.124Z,9.37
2022-09-17T19:14:45.723Z,9.47
2022-09-17T19:16:48.341Z,9.43
2022-09-17T19:18:51.404Z,9.42
2022-09-17T19:21:00.025Z,9.31
2022-09-17T19:23:02.691Z,8.72
2022-09-17T19:25:06.088Z,8.76
2022-09-17T19:27:10.044Z,8.64
2022-09-17T19:29:12.712Z,8.70
2022-09-17T19:31:17.612Z,8.62
2022-09-17T19:33:20.281Z,8.49
2022-09-17T19:35:22.871Z,8.31
2022-09-17T19:37:25.543Z,8.23
2022-09-17T19:39:28.132Z,8.27
2022-09-17T19:41:31.937Z,8.34
2022-09-17T19:43:36.181Z,8.38
2022-09-17T19:45:38.812Z,8.42
2022-09-17T19:47:41.427Z,8.45
2022-09-17T19:49:46.296Z,8.56
2022-09-17T19:51:49.098Z,8.46
2022-09-17T19:53:52.468Z,8.39
2022-09-17T19:55:55.390Z,8.41
2022-09-17T19:58:03.650Z,8.52
2022-09-17T20:00:10.108Z,8.49
2022-09-17T20:02:13.550Z,8.35
2022-09-17T20:04:16.221Z,8.27
2022-09-17T20:06:20.694Z,8.24
2022-09-17T20:08:23.325Z,8.27
2022-09-17T20:10:26.061Z,8.11
2022-09-17T20:12:28.716Z,8.19
2022-09-17T20:14:32.383Z,8.23
2022-09-17T20:16:39.052Z,8.19
2022-09-17T20:18:43.691Z,8.11
2022-09-17T20:20:46.342Z,8.22
2022-09-17T20:22:49.138Z,8.07
2022-09-17T20:24:51.772Z,8.00
2022-09-17T20:26:54.346Z,7.91
2022-09-17T20:28:57.052Z,7.86
2022-09-17T20:31:04.127Z,7.80
2022-09-17T20:33:08.076Z,7.86
2022-09-17T20:35:10.736Z,7.87
2022-09-17T20:37:13.973Z,7.76
2022-09-17T20:39:22.292Z,7.74
2022-09-17T20:41:25.579Z,7.75
2022-09-17T20:43:28.239Z,7.70
2022-09-17T20:45:30.834Z,7.71
2022-09-17T20:47:33.423Z,7.77
2022-09-17T20:49:37.348Z,7.83
2022-09-17T20:51:39.966Z,7.78
2022-09-17T20:53:43.153Z,7.73
2022-09-17T20:55:45.755Z,7.76
2022-09-17T20:57:48.525Z,7.75
2022-09-17T20:59:52.946Z,7.82
2022-09-17T21:01:56.051Z,7.80
2022-09-17T21:04:00.288Z,7.85
2022-09-17T21:06:04.316Z,7.91
2022-09-17T21:08:06.895Z,7.78
2022-09-17T21:10:10.142Z,7.91
2022-09-17T21:12:13.002Z,7.96
2022-09-17T21:14:18.014Z,7.85
2022-09-17T21:16:20.825Z,7.88
2022-09-17T21:18:23.499Z,7.81
2022-09-17T21:20:26.201Z,7.97
2022-09-17T21:22:30.321Z,7.89
2022-09-17T21:24:32.931Z,8.06
2022-09-17T21:26:35.827Z,8.08
2022-09-17T21:28:38.622Z,8.10
2022-09-17T21:30:43.753Z,8.19
2022-09-17T21:32:46.384Z,8.24
2022-09-17T21:34:51.395Z,8.29
2022-09-17T21:36:54.012Z,8.33
2022-09-17T21:39:00.315Z,8.23
2022-09-17T21:41:04.932Z,8.28
2022-09-17T21:43:09.512Z,8.30
2022-09-17T21:45:12.112Z,8.27
2022-09-17T21:47:14.711Z,8.21
2022-09-17T21:49:18.308Z,8.30
2022-09-17T21:51:23.109Z,8.43
2022-09-17T21:53:25.645Z,8.32
2022-09-17T21:55:29.587Z,8.48
2022-09-17T21:57:32.175Z,8.35
2022-09-17T21:59:34.743Z,8.54
2022-09-17T22:01:39.611Z,8.43
2022-09-17T22:03:43.380Z,8.49
2022-09-17T22:05:46.015Z,8.49
2022-09-17T22:07:48.587Z,8.48
2022-09-17T22:09:51.243Z,8.37
2022-09-17T22:11:55.209Z,8.33
2022-09-17T22:14:00.601Z,8.44
2022-09-17T22:16:05.100Z,8.34
2022-09-17T22:18:12.740Z,8.36
2022-09-17T22:20:16.271Z,8.38
2022-09-17T22:22:18.893Z,8.35
2022-09-17T22:24:25.198Z,8.30
2022-09-17T22:26:30.623Z,8.27
2022-09-17T22:28:35.184Z,8.32
2022-09-17T22:30:37.798Z,8.31
2022-09-17T22:32:40.400Z,8.29
2022-09-17T22:34:43.217Z,8.22
2022-09-17T22:36:46.188Z,8.24
2022-09-17T22:38:51.163Z,8.25
2022-09-17T22:40:54.499Z,8.29
2022-09-17T22:42:57.072Z,8.25
2022-09-17T22:45:01.005Z,8.27
2022-09-17T22:47:03.586Z,8.33
2022-09-17T22:49:07.139Z,8.27
2022-09-17T22:51:10.623Z,8.24
2022-09-17T22:53:13.195Z,8.32
2022-09-17T22:55:16.086Z,8.26
2022-09-17T22:57:18.709Z,8.24
2022-09-17T22:59:21.636Z,8.27
2022-09-17T23:01:29.032Z,8.24
2022-09-17T23:03:32.008Z,8.35
2022-09-17T23:05:34.595Z,8.32
2022-09-17T23:07:37.854Z,8.33
2022-09-17T23:09:40.412Z,8.33
2022-09-17T23:11:43.125Z,8.32
2022-09-17T23:13:45.766Z,8.31
2022-09-17T23:15:48.420Z,8.31
2022-09-17T23:17:52.379Z,8.27
2022-09-17T23:19:55.679Z,8.32
2022-09-17T23:21:58.277Z,8.27
2022-09-17T23:24:01.281Z,8.31
2022-09-17T23:26:05.756Z,8.28
2022-09-17T23:28:08.395Z,8.36
2022-09-17T23:30:12.612Z,8.46
2022-09-17T23:32:15.242Z,8.36
2022-09-17T23:34:19.347Z,8.33
2022-09-17T23:36:23.986Z,8.32
2022-09-17T23:38:26.647Z,8.29
2022-09-17T23:40:29.470Z,8.37
2022-09-17T23:42:35.948Z,8.32
2022-09-17T23:44:38.508Z,8.30
2022-09-17T23:46:41.366Z,8.31
2022-09-17T23:48:44.054Z,8.25
2022-09-17T23:50:47.974Z,8.35
2022-09-17T23:52:50.613Z,8.30
2022-09-17T23:54:58.234Z,8.29
2022-09-17T23:57:01.131Z,8.30
2022-09-17T23:59:04.534Z,8.25
